sensor_id;sensor_type;location;lat;lon;timestamp;pressure;altitude;pressure_sealevel;temperature;humidity
49979;BME280;35869;50.990;6.962;2023-02-14T00:04:31;103219.69;;;5.45;93.93
49979;BME280;35869;50.990;6.962;2023-02-14T00:09:31;103216.22;;;5.40;93.76
49979;BME280;35869;50.990;6.962;2023-02-14T00:14:32;103212.69;;;5.36;93.69
49979;BME280;35869;50.990;6.962;2023-02-14T00:19:32;103216.88;;;5.29;94.07
49979;BME280;35869;50.990;6.962;2023-02-14T00:24:32;103227.88;;;5.21;93.89
49979;BME280;35869;50.990;6.962;2023-02-14T00:29:33;103221.75;;;5.14;93.95
49979;BME280;35869;50.990;6.962;2023-02-14T00:34:33;103219.13;;;5.11;93.77
49979;BME280;35869;50.990;6.962;2023-02-14T00:39:33;103207.09;;;5.10;93.16
49979;BME280;35869;50.990;6.962;2023-02-14T00:44:33;103203.56;;;5.06;93.36
49979;BME280;35869;50.990;6.962;2023-02-14T00:49:34;103196.63;;;5.04;93.23
49979;BME280;35869;50.990;6.962;2023-02-14T00:54:34;103194.03;;;5.02;93.36
49979;BME280;35869;50.990;6.962;2023-02-14T00:59:34;103191.47;;;5.04;92.98
49979;BME280;35869;50.990;6.962;2023-02-14T01:04:34;103196.59;;;5.01;92.88
49979;BME280;35869;50.990;6.962;2023-02-14T01:09:34;103193.16;;;5.02;92.79
49979;BME280;35869;50.990;6.962;2023-02-14T01:14:35;103189.75;;;5.03;92.67
49979;BME280;35869;50.990;6.962;2023-02-14T01:19:35;103190.56;;;4.99;92.61
49979;BME280;35869;50.990;6.962;2023-02-14T01:24:35;103189.81;;;5.06;91.89
49979;BME280;35869;50.990;6.962;2023-02-14T01:29:35;103188.84;;;4.99;91.96
49979;BME280;35869;50.990;6.962;2023-02-14T01:34:35;103182.88;;;5.02;91.52
49979;BME280;35869;50.990;6.962;2023-02-14T01:39:36;103181.06;;;4.98;91.72
49979;BME280;35869;50.990;6.962;2023-02-14T01:49:46;103184.53;;;4.98;91.42
49979;BME280;35869;50.990;6.962;2023-02-14T01:54:55;103186.16;;;4.95;91.16
49979;BME280;35869;50.990;6.962;2023-02-14T01:59:58;103198.09;;;4.90;91.12
49979;BME280;35869;50.990;6.962;2023-02-14T02:04:59;103183.41;;;4.86;91.52
49979;BME280;35869;50.990;6.962;2023-02-14T02:10:03;103178.94;;;4.75;92.82
49979;BME280;35869;50.990;6.962;2023-02-14T02:15:04;103177.16;;;4.73;93.22
49979;BME280;35869;50.990;6.962;2023-02-14T02:47:24;103167.97;;;4.42;95.04
49979;BME280;35869;50.990;6.962;2023-02-14T02:52:34;103154.94;;;4.34;94.31
49979;BME280;35869;50.990;6.962;2023-02-14T02:57:39;103168.59;;;4.32;94.26
49979;BME280;35869;50.990;6.962;2023-02-14T03:02:45;103175.34;;;4.26;95.27
49979;BME280;35869;50.990;6.962;2023-02-14T03:07:47;103178.72;;;4.22;95.26
49979;BME280;35869;50.990;6.962;2023-02-14T03:23:31;103179.25;;;4.09;95.18
49979;BME280;35869;50.990;6.962;2023-02-14T03:28:40;103174.84;;;4.04;94.49
49979;BME280;35869;50.990;6.962;2023-02-14T03:33:49;103180.81;;;4.01;94.13
49979;BME280;35869;50.990;6.962;2023-02-14T03:39:02;103181.75;;;4.05;93.75
49979;BME280;35869;50.990;6.962;2023-02-14T03:44:06;103179.97;;;4.02;94.02
49979;BME280;35869;50.990;6.962;2023-02-14T03:49:11;103177.25;;;3.96;94.51
49979;BME280;35869;50.990;6.962;2023-02-14T03:54:13;103175.69;;;4.03;94.11
49979;BME280;35869;50.990;6.962;2023-02-14T03:59:17;103175.66;;;4.01;93.69
49979;BME280;35869;50.990;6.962;2023-02-14T04:04:21;103179.97;;;4.02;93.43
49979;BME280;35869;50.990;6.962;2023-02-14T04:09:23;103172.97;;;3.96;93.95
49979;BME280;35869;50.990;6.962;2023-02-14T04:14:23;103165.25;;;3.95;94.21
49979;BME280;35869;50.990;6.962;2023-02-14T04:19:23;103172.84;;;3.90;93.96
49979;BME280;35869;50.990;6.962;2023-02-14T04:24:24;103167.81;;;3.95;93.03
49979;BME280;35869;50.990;6.962;2023-02-14T04:29:24;103159.19;;;3.93;93.64
49979;BME280;35869;50.990;6.962;2023-02-14T04:34:24;103166.84;;;3.90;93.32
49979;BME280;35869;50.990;6.962;2023-02-14T04:39:25;103163.38;;;3.88;93.94
49979;BME280;35869;50.990;6.962;2023-02-14T04:44:25;103159.97;;;3.89;94.56
49979;BME280;35869;50.990;6.962;2023-02-14T04:49:25;103155.66;;;3.88;93.45
49979;BME280;35869;50.990;6.962;2023-02-14T04:54:25;103162.50;;;3.87;94.07
49979;BME280;35869;50.990;6.962;2023-02-14T04:59:26;103154.69;;;3.83;93.77
49979;BME280;35869;50.990;6.962;2023-02-14T05:04:26;103152.06;;;3.81;94.50
49979;BME280;35869;50.990;6.962;2023-02-14T05:09:26;103152.81;;;3.76;94.30
49979;BME280;35869;50.990;6.962;2023-02-14T05:14:26;103146.72;;;3.72;94.79
49979;BME280;35869;50.990;6.962;2023-02-14T05:19:27;103144.06;;;3.69;94.41
49979;BME280;35869;50.990;6.962;2023-02-14T05:24:27;103133.72;;;3.66;94.50
49979;BME280;35869;50.990;6.962;2023-02-14T05:29:27;103136.31;;;3.67;94.68
49979;BME280;35869;50.990;6.962;2023-02-14T05:34:27;103123.41;;;3.66;94.92
49979;BME280;35869;50.990;6.962;2023-02-14T05:39:28;103124.25;;;3.65;94.74
49979;BME280;35869;50.990;6.962;2023-02-14T05:44:28;103126.84;;;3.65;94.95
49979;BME280;35869;50.990;6.962;2023-02-14T05:49:28;103128.44;;;3.61;94.15
49979;BME280;35869;50.990;6.962;2023-02-14T05:54:29;103123.16;;;3.55;94.59
49979;BME280;35869;50.990;6.962;2023-02-14T05:59:29;103133.53;;;3.58;94.11
49979;BME280;35869;50.990;6.962;2023-02-14T06:04:32;103131.69;;;3.53;94.37
49979;BME280;35869;50.990;6.962;2023-02-14T06:09:33;103130.69;;;3.46;94.38
49979;BME280;35869;50.990;6.962;2023-02-14T06:14:33;103136.63;;;3.45;94.61
49979;BME280;35869;50.990;6.962;2023-02-14T06:19:33;103136.69;;;3.46;94.88
49979;BME280;35869;50.990;6.962;2023-02-14T06:24:33;103140.00;;;3.42;95.76
49979;BME280;35869;50.990;6.962;2023-02-14T06:29:34;103152.91;;;3.44;94.98
49979;BME280;35869;50.990;6.962;2023-02-14T06:34:34;103152.72;;;3.36;94.55
49979;BME280;35869;50.990;6.962;2023-02-14T06:39:34;103144.97;;;3.35;94.97
49979;BME280;35869;50.990;6.962;2023-02-14T06:44:35;103147.53;;;3.35;95.19
49979;BME280;35869;50.990;6.962;2023-02-14T06:49:35;103156.78;;;3.28;95.56
49979;BME280;35869;50.990;6.962;2023-02-14T06:54:35;103155.91;;;3.28;95.91
49979;BME280;35869;50.990;6.962;2023-02-14T06:59:35;103154.22;;;3.28;94.96
49979;BME280;35869;50.990;6.962;2023-02-14T07:04:36;103154.16;;;3.25;95.52
49979;BME280;35869;50.990;6.962;2023-02-14T07:09:36;103158.34;;;3.21;95.66
49979;BME280;35869;50.990;6.962;2023-02-14T07:14:36;103161.84;;;3.24;95.24
49979;BME280;35869;50.990;6.962;2023-02-14T07:19:36;103155.84;;;3.25;95.18
49979;BME280;35869;50.990;6.962;2023-02-14T07:24:36;103153.28;;;3.25;95.70
49979;BME280;35869;50.990;6.962;2023-02-14T07:29:37;103153.25;;;3.23;95.50
49979;BME280;35869;50.990;6.962;2023-02-14T07:34:37;103151.56;;;3.24;95.45
49979;BME280;35869;50.990;6.962;2023-02-14T07:39:37;103143.03;;;3.26;95.78
49979;BME280;35869;50.990;6.962;2023-02-14T07:44:37;103149.91;;;3.27;95.42
49979;BME280;35869;50.990;6.962;2023-02-14T07:49:38;103147.31;;;3.26;95.47
49979;BME280;35869;50.990;6.962;2023-02-14T07:54:38;103151.59;;;3.27;95.64
49979;BME280;35869;50.990;6.962;2023-02-14T07:59:38;103147.41;;;3.29;95.26
49979;BME280;35869;50.990;6.962;2023-02-14T08:04:38;103148.28;;;3.31;95.49
49979;BME280;35869;50.990;6.962;2023-02-14T08:09:39;103144.19;;;3.39;95.58
49979;BME280;35869;50.990;6.962;2023-02-14T08:14:39;103143.56;;;3.47;95.90
49979;BME280;35869;50.990;6.962;2023-02-14T08:19:39;103153.88;;;3.49;95.25
49979;BME280;35869;50.990;6.962;2023-02-14T08:24:39;103162.06;;;3.69;97.01
49979;BME280;35869;50.990;6.962;2023-02-14T08:29:40;103159.31;;;3.61;96.05
49979;BME280;35869;50.990;6.962;2023-02-14T08:34:40;103157.97;;;3.77;95.73
49979;BME280;35869;50.990;6.962;2023-02-14T08:39:40;103152.09;;;3.83;95.11
49979;BME280;35869;50.990;6.962;2023-02-14T08:44:40;103155.72;;;3.91;95.39
49979;BME280;35869;50.990;6.962;2023-02-14T08:49:40;103155.34;;;4.13;96.32
49979;BME280;35869;50.990;6.962;2023-02-14T08:54:41;103158.69;;;4.09;95.51
49979;BME280;35869;50.990;6.962;2023-02-14T08:59:41;103158.69;;;4.09;95.84
49979;BME280;35869;50.990;6.962;2023-02-14T09:04:41;103147.78;;;4.21;96.71
49979;BME280;35869;50.990;6.962;2023-02-14T09:09:41;103149.72;;;4.33;96.10
49979;BME280;35869;50.990;6.962;2023-02-14T09:14:43;103143.28;;;4.51;95.13
49979;BME280;35869;50.990;6.962;2023-02-14T09:19:43;103138.16;;;4.53;95.10
49979;BME280;35869;50.990;6.962;2023-02-14T09:24:43;103136.44;;;4.53;96.45
49979;BME280;35869;50.990;6.962;2023-02-14T09:29:43;103126.81;;;4.90;95.51
49979;BME280;35869;50.990;6.962;2023-02-14T09:34:44;103132.75;;;4.86;94.96
49979;BME280;35869;50.990;6.962;2023-02-14T09:39:44;103129.59;;;5.01;95.31
49979;BME280;35869;50.990;6.962;2023-02-14T09:45:27;103117.78;;;5.15;94.18
49979;BME280;35869;50.990;6.962;2023-02-14T09:51:28;103116.13;;;5.19;94.67
49979;BME280;35869;50.990;6.962;2023-02-14T09:56:03;103104.28;;;5.28;94.72
49979;BME280;35869;50.990;6.962;2023-02-14T10:01:17;103111.53;;;5.54;93.67
49979;BME280;35869;50.990;6.962;2023-02-14T10:06:39;103103.25;;;5.76;93.43
49979;BME280;35869;50.990;6.962;2023-02-14T10:11:44;103103.75;;;6.10;91.83
49979;BME280;35869;50.990;6.962;2023-02-14T10:16:58;103102.19;;;6.24;92.17
49979;BME280;35869;50.990;6.962;2023-02-14T10:22:02;103098.75;;;6.22;92.43
49979;BME280;35869;50.990;6.962;2023-02-14T10:27:25;103099.59;;;6.24;91.77
49979;BME280;35869;50.990;6.962;2023-02-14T10:32:40;103098.09;;;6.41;91.86
49979;BME280;35869;50.990;6.962;2023-02-14T10:38:03;103097.31;;;6.49;91.84
49979;BME280;35869;50.990;6.962;2023-02-14T10:43:39;103075.09;;;6.66;91.48
49979;BME280;35869;50.990;6.962;2023-02-14T10:49:03;103080.63;;;7.06;88.70
49979;BME280;35869;50.990;6.962;2023-02-14T10:54:26;103079.03;;;7.26;87.45
49979;BME280;35869;50.990;6.962;2023-02-14T10:59:34;103065.16;;;7.13;88.46
49979;BME280;35869;50.990;6.962;2023-02-14T11:04:38;103060.97;;;7.31;89.41
49979;BME280;35869;50.990;6.962;2023-02-14T11:09:38;103037.00;;;7.58;87.33
49979;BME280;35869;50.990;6.962;2023-02-14T11:14:39;103038.75;;;7.65;87.01
49979;BME280;35869;50.990;6.962;2023-02-14T11:19:39;103037.06;;;7.70;88.47
49979;BME280;35869;50.990;6.962;2023-02-14T11:24:39;103023.31;;;7.91;84.85
49979;BME280;35869;50.990;6.962;2023-02-14T11:34:43;103021.66;;;7.99;86.15
49979;BME280;35869;50.990;6.962;2023-02-14T11:39:44;103010.47;;;8.26;84.62
49979;BME280;35869;50.990;6.962;2023-02-14T11:44:54;103010.56;;;8.41;84.45
49979;BME280;35869;50.990;6.962;2023-02-14T11:50:21;103001.03;;;8.49;83.23
49979;BME280;35869;50.990;6.962;2023-02-14T11:55:25;102996.75;;;8.73;82.05
49979;BME280;35869;50.990;6.962;2023-02-14T12:00:27;102988.13;;;8.68;84.73
49979;BME280;35869;50.990;6.962;2023-02-14T12:05:32;102971.66;;;8.95;80.41
49979;BME280;35869;50.990;6.962;2023-02-14T12:10:35;102965.59;;;9.00;82.29
49979;BME280;35869;50.990;6.962;2023-02-14T12:26:12;102935.25;;;9.25;79.92
49979;BME280;35869;50.990;6.962;2023-02-14T12:31:20;102933.47;;;9.50;78.29
49979;BME280;35869;50.990;6.962;2023-02-14T12:47:38;102922.81;;;9.95;75.55
49979;BME280;35869;50.990;6.962;2023-02-14T13:08:43;102888.78;;;10.36;72.21
49979;BME280;35869;50.990;6.962;2023-02-14T13:14:12;102873.16;;;10.39;73.90
49979;BME280;35869;50.990;6.962;2023-02-14T13:19:37;102857.53;;;10.44;74.51
49979;BME280;35869;50.990;6.962;2023-02-14T13:24:43;102850.47;;;10.56;73.15
49979;BME280;35869;50.990;6.962;2023-02-14T13:34:50;102839.94;;;10.68;70.92
49979;BME280;35869;50.990;6.962;2023-02-14T13:39:54;102835.47;;;10.80;70.65
49979;BME280;35869;50.990;6.962;2023-02-14T13:44:55;102834.53;;;10.84;70.67
49979;BME280;35869;50.990;6.962;2023-02-14T13:49:59;102838.88;;;10.86;70.78
49979;BME280;35869;50.990;6.962;2023-02-14T13:55:06;102830.88;;;11.00;69.52
49979;BME280;35869;50.990;6.962;2023-02-14T14:10:47;102822.88;;;11.17;69.96
49979;BME280;35869;50.990;6.962;2023-02-14T14:21:28;102806.25;;;11.26;69.19
49979;BME280;35869;50.990;6.962;2023-02-14T14:32:10;102794.00;;;11.34;70.38
49979;BME280;35869;50.990;6.962;2023-02-14T14:37:17;102789.59;;;11.37;69.56
49979;BME280;35869;50.990;6.962;2023-02-14T14:42:18;102779.19;;;11.39;68.89
49979;BME280;35869;50.990;6.962;2023-02-14T14:47:21;102768.72;;;11.42;66.62
49979;BME280;35869;50.990;6.962;2023-02-14T14:52:34;102765.25;;;11.41;67.67
49979;BME280;35869;50.990;6.962;2023-02-14T14:57:35;102765.16;;;11.47;67.24
49979;BME280;35869;50.990;6.962;2023-02-14T15:02:37;102768.69;;;11.45;71.13
49979;BME280;35869;50.990;6.962;2023-02-14T15:07:37;102765.94;;;11.53;67.44
49979;BME280;35869;50.990;6.962;2023-02-14T15:12:38;102759.06;;;11.50;66.51
49979;BME280;35869;50.990;6.962;2023-02-14T15:17:42;102752.16;;;11.46;68.39
49979;BME280;35869;50.990;6.962;2023-02-14T15:22:46;102753.84;;;11.50;69.29
49979;BME280;35869;50.990;6.962;2023-02-14T15:27:47;102752.16;;;11.46;70.98
49979;BME280;35869;50.990;6.962;2023-02-14T15:32:48;102752.19;;;11.43;71.00
49979;BME280;35869;50.990;6.962;2023-02-14T15:38:00;102742.56;;;11.48;69.47
49979;BME280;35869;50.990;6.962;2023-02-14T15:43:32;102744.38;;;11.44;72.37
49979;BME280;35869;50.990;6.962;2023-02-14T15:48:37;102741.78;;;11.43;73.95
49979;BME280;35869;50.990;6.962;2023-02-14T15:53:43;102753.22;;;11.34;73.89
49979;BME280;35869;50.990;6.962;2023-02-14T15:58:47;102755.00;;;11.32;72.31
49979;BME280;35869;50.990;6.962;2023-02-14T16:03:51;102753.41;;;11.19;75.61
49979;BME280;35869;50.990;6.962;2023-02-14T16:08:54;102759.53;;;11.16;76.67
49979;BME280;35869;50.990;6.962;2023-02-14T16:13:55;102755.31;;;11.09;72.07
49979;BME280;35869;50.990;6.962;2023-02-14T16:18:56;102761.47;;;11.02;73.99
49979;BME280;35869;50.990;6.962;2023-02-14T16:29:17;102766.09;;;10.80;78.99
49979;BME280;35869;50.990;6.962;2023-02-14T16:34:17;102761.84;;;10.72;75.04
49979;BME280;35869;50.990;6.962;2023-02-14T16:39:20;102774.03;;;10.66;77.33
49979;BME280;35869;50.990;6.962;2023-02-14T16:44:21;102775.97;;;10.52;77.08
49979;BME280;35869;50.990;6.962;2023-02-14T16:49:21;102778.72;;;10.38;75.87
49979;BME280;35869;50.990;6.962;2023-02-14T16:54:24;102777.94;;;10.26;77.03
49979;BME280;35869;50.990;6.962;2023-02-14T16:59:25;102780.59;;;10.21;76.70
49979;BME280;35869;50.990;6.962;2023-02-14T17:04:25;102785.09;;;10.04;78.30
49979;BME280;35869;50.990;6.962;2023-02-14T17:09:31;102786.91;;;9.93;76.83
49979;BME280;35869;50.990;6.962;2023-02-14T17:14:36;102786.97;;;9.86;77.85
49979;BME280;35869;50.990;6.962;2023-02-14T17:19:37;102794.03;;;9.65;76.98
49979;BME280;35869;50.990;6.962;2023-02-14T17:24:38;102797.53;;;9.60;78.12
49979;BME280;35869;50.990;6.962;2023-02-14T17:29:39;102799.34;;;9.48;76.85
49979;BME280;35869;50.990;6.962;2023-02-14T17:34:39;102793.41;;;9.30;78.52
49979;BME280;35869;50.990;6.962;2023-02-14T17:39:39;102802.09;;;9.26;79.88
49979;BME280;35869;50.990;6.962;2023-02-14T17:44:39;102816.81;;;9.20;80.17
49979;BME280;35869;50.990;6.962;2023-02-14T17:49:40;102816.88;;;9.09;80.58
49979;BME280;35869;50.990;6.962;2023-02-14T17:54:40;102819.53;;;8.94;79.61
49979;BME280;35869;50.990;6.962;2023-02-14T17:59:41;102815.25;;;8.79;78.78
49979;BME280;35869;50.990;6.962;2023-02-14T18:04:41;102819.59;;;8.80;79.31
49979;BME280;35869;50.990;6.962;2023-02-14T18:09:41;102824.81;;;8.65;81.27
49979;BME280;35869;50.990;6.962;2023-02-14T18:14:42;102820.50;;;8.54;81.72
49979;BME280;35869;50.990;6.962;2023-02-14T18:19:42;102817.91;;;8.44;82.03
49979;BME280;35869;50.990;6.962;2023-02-14T18:24:42;102815.34;;;8.39;82.16
49979;BME280;35869;50.990;6.962;2023-02-14T18:29:46;102810.16;;;8.33;82.44
49979;BME280;35869;50.990;6.962;2023-02-14T18:34:49;102800.66;;;8.24;83.34
49979;BME280;35869;50.990;6.962;2023-02-14T18:39:49;102801.53;;;8.13;83.93
49979;BME280;35869;50.990;6.962;2023-02-14T18:44:52;102800.66;;;7.97;83.54
49979;BME280;35869;50.990;6.962;2023-02-14T18:50:05;102797.22;;;7.84;83.98
49979;BME280;35869;50.990;6.962;2023-02-14T18:55:51;102791.13;;;7.50;82.89
49979;BME280;35869;50.990;6.962;2023-02-14T19:01:12;102779.06;;;7.49;82.08
49979;BME280;35869;50.990;6.962;2023-02-14T19:06:13;102785.09;;;7.40;84.75
49979;BME280;35869;50.990;6.962;2023-02-14T19:11:22;102779.91;;;7.37;84.00
49979;BME280;35869;50.990;6.962;2023-02-14T19:16:48;102774.69;;;7.20;83.62
49979;BME280;35869;50.990;6.962;2023-02-14T19:21:49;102782.41;;;7.08;83.66
49979;BME280;35869;50.990;6.962;2023-02-14T19:26:50;102767.75;;;7.06;84.91
49979;BME280;35869;50.990;6.962;2023-02-14T19:31:52;102778.91;;;6.95;84.85
49979;BME280;35869;50.990;6.962;2023-02-14T19:36:52;102770.28;;;6.87;85.15
49979;BME280;35869;50.990;6.962;2023-02-14T19:41:52;102753.00;;;6.79;84.94
49979;BME280;35869;50.990;6.962;2023-02-14T19:46:53;102764.13;;;6.62;85.64
49979;BME280;35869;50.990;6.962;2023-02-14T19:51:53;102761.56;;;6.64;85.24
49979;BME280;35869;50.990;6.962;2023-02-14T19:56:54;102767.47;;;6.45;85.17
49979;BME280;35869;50.990;6.962;2023-02-14T20:01:54;102756.31;;;6.49;85.20
49979;BME280;35869;50.990;6.962;2023-02-14T20:06:56;102764.84;;;6.35;85.38
49979;BME280;35869;50.990;6.962;2023-02-14T20:11:57;102763.88;;;6.21;86.17
49979;BME280;35869;50.990;6.962;2023-02-14T20:16:58;102763.88;;;6.18;86.29
49979;BME280;35869;50.990;6.962;2023-02-14T20:22:16;102763.84;;;6.12;85.98
49979;BME280;35869;50.990;6.962;2023-02-14T20:27:17;102764.66;;;6.05;86.25
49979;BME280;35869;50.990;6.962;2023-02-14T20:32:17;102760.31;;;6.04;86.58
49979;BME280;35869;50.990;6.962;2023-02-14T20:37:17;102756.00;;;6.00;86.86
49979;BME280;35869;50.990;6.962;2023-02-14T20:42:17;102744.63;;;5.79;86.54
49979;BME280;35869;50.990;6.962;2023-02-14T20:47:18;102750.59;;;5.74;86.92
49979;BME280;35869;50.990;6.962;2023-02-14T20:52:18;102745.38;;;5.68;87.69
49979;BME280;35869;50.990;6.962;2023-02-14T20:57:18;102747.00;;;5.55;87.80
49979;BME280;35869;50.990;6.962;2023-02-14T21:02:18;102741.78;;;5.49;87.77
49979;BME280;35869;50.990;6.962;2023-02-14T21:07:18;102748.66;;;5.47;87.94
49979;BME280;35869;50.990;6.962;2023-02-14T21:12:19;102744.31;;;5.44;87.91
49979;BME280;35869;50.990;6.962;2023-02-14T21:17:19;102754.56;;;5.35;87.69
49979;BME280;35869;50.990;6.962;2023-02-14T21:22:19;102748.47;;;5.30;88.13
49979;BME280;35869;50.990;6.962;2023-02-14T21:27:19;102748.41;;;5.22;88.04
49979;BME280;35869;50.990;6.962;2023-02-14T21:32:20;102748.31;;;5.15;89.03
49979;BME280;35869;50.990;6.962;2023-02-14T21:37:20;102752.53;;;5.09;89.17
49979;BME280;35869;50.990;6.962;2023-02-14T21:42:21;102744.72;;;4.99;88.48
49979;BME280;35869;50.990;6.962;2023-02-14T21:47:21;102735.22;;;4.93;88.33
49979;BME280;35869;50.990;6.962;2023-02-14T21:52:21;102743.69;;;4.86;88.84
49979;BME280;35869;50.990;6.962;2023-02-14T21:57:22;102737.50;;;4.70;89.08
49979;BME280;35869;50.990;6.962;2023-02-14T22:02:22;102735.78;;;4.69;88.51
49979;BME280;35869;50.990;6.962;2023-02-14T22:07:22;102730.56;;;4.63;88.19
49979;BME280;35869;50.990;6.962;2023-02-14T22:12:22;102724.47;;;4.58;88.46
49979;BME280;35869;50.990;6.962;2023-02-14T22:17:23;102727.06;;;4.58;88.61
49979;BME280;35869;50.990;6.962;2023-02-14T22:22:23;102719.25;;;4.52;88.24
49979;BME280;35869;50.990;6.962;2023-02-14T22:27:23;102719.97;;;4.42;88.52
49979;BME280;35869;50.990;6.962;2023-02-14T22:32:23;102707.03;;;4.36;88.12
49979;BME280;35869;50.990;6.962;2023-02-14T22:37:23;102706.09;;;4.31;88.83
49979;BME280;35869;50.990;6.962;2023-02-14T22:42:24;102717.16;;;4.25;88.81
49979;BME280;35869;50.990;6.962;2023-02-14T22:47:24;102717.06;;;4.19;88.95
49979;BME280;35869;50.990;6.962;2023-02-14T22:52:24;102711.09;;;4.20;88.78
49979;BME280;35869;50.990;6.962;2023-02-14T22:57:24;102716.19;;;4.17;88.09
49979;BME280;35869;50.990;6.962;2023-02-14T23:02:24;102705.84;;;4.12;89.15
49979;BME280;35869;50.990;6.962;2023-02-14T23:07:25;102709.13;;;4.02;88.91
49979;BME280;35869;50.990;6.962;2023-02-14T23:12:25;102704.03;;;4.07;88.76
49979;BME280;35869;50.990;6.962;2023-02-14T23:17:25;102703.91;;;3.97;89.48
49979;BME280;35869;50.990;6.962;2023-02-14T23:22:34;102709.97;;;4.01;89.30
49979;BME280;35869;50.990;6.962;2023-02-14T23:32:39;102708.88;;;3.87;89.18
49979;BME280;35869;50.990;6.962;2023-02-14T23:37:39;102705.31;;;3.79;89.73
49979;BME280;35869;50.990;6.962;2023-02-14T23:42:39;102703.44;;;3.68;89.83
49979;BME280;35869;50.990;6.962;2023-02-14T23:47:40;102695.00;;;3.76;89.16
49979;BME280;35869;50.990;6.962;2023-02-14T23:52:40;102694.00;;;3.67;89.40
49979;BME280;35869;50.990;6.962;2023-02-14T23:57:40;102688.66;;;3.55;90.48
